createdAt,value
2024-05-09T00:00:18.425Z,44.08
2024-05-09T00:01:13.883Z,44.03
2024-05-09T00:02:12.840Z,44.07
2024-05-09T00:03:12.956Z,44.07
2024-05-09T00:04:12.848Z,44.03
2024-05-09T00:05:13.085Z,44.09
2024-05-09T00:06:12.896Z,44.05
2024-05-09T00:07:12.881Z,44.00
2024-05-09T00:08:12.996Z,44.04
2024-05-09T00:09:12.868Z,44.04
2024-05-09T00:10:22.251Z,44.03
2024-05-09T00:11:14.012Z,44.04
2024-05-09T00:12:13.073Z,44.04
2024-05-09T00:13:12.884Z,44.08
2024-05-09T00:14:12.909Z,44.03
2024-05-09T00:15:12.934Z,43.96
2024-05-09T00:16:12.938Z,44.00
2024-05-09T00:17:12.998Z,43.97
2024-05-09T00:18:13.109Z,44.01
2024-05-09T00:19:13.178Z,44.03
2024-05-09T00:20:17.939Z,43.97
2024-05-09T00:21:13.998Z,43.96
2024-05-09T00:22:12.947Z,43.99
2024-05-09T00:23:13.582Z,43.95
2024-05-09T00:24:12.959Z,43.97
2024-05-09T00:25:12.968Z,44.01
2024-05-09T00:26:13.010Z,43.95
2024-05-09T00:27:13.509Z,43.96
2024-05-09T00:28:13.168Z,43.92
2024-05-09T00:29:12.985Z,43.97
2024-05-09T00:30:17.843Z,43.94
2024-05-09T00:31:13.978Z,44.01
2024-05-09T00:32:13.062Z,43.94
2024-05-09T00:33:13.142Z,43.90
2024-05-09T00:34:12.998Z,43.93
2024-05-09T00:35:13.026Z,43.94
2024-05-09T00:36:12.983Z,43.87
2024-05-09T00:37:12.979Z,43.92
2024-05-09T00:38:13.014Z,43.95
2024-05-09T00:39:13.075Z,43.92
2024-05-09T00:40:18.753Z,43.90
2024-05-09T00:41:16.309Z,43.89
2024-05-09T00:42:13.176Z,43.89
2024-05-09T00:43:14.384Z,43.91
2024-05-09T00:44:13.343Z,43.91
2024-05-09T00:45:13.215Z,43.89
2024-05-09T00:46:13.172Z,43.91
2024-05-09T00:47:13.367Z,43.88
2024-05-09T00:48:15.361Z,43.91
2024-05-09T00:49:13.306Z,43.87
2024-05-09T00:50:19.233Z,43.88
2024-05-09T00:51:14.376Z,43.88
2024-05-09T00:52:13.188Z,43.83
2024-05-09T00:53:13.351Z,43.87
2024-05-09T00:54:13.192Z,43.81
2024-05-09T00:55:13.201Z,43.80
2024-05-09T00:56:13.260Z,43.82
2024-05-09T00:57:15.425Z,43.83
2024-05-09T00:58:13.195Z,43.82
2024-05-09T00:59:13.240Z,43.82
2024-05-09T01:00:22.580Z,43.80
2024-05-09T01:01:14.284Z,43.85
2024-05-09T01:02:13.390Z,43.85
2024-05-09T01:03:14.374Z,43.80
2024-05-09T01:04:13.234Z,43.77
2024-05-09T01:05:13.377Z,43.77
2024-05-09T01:06:13.250Z,43.74
2024-05-09T01:07:13.259Z,43.81
2024-05-09T01:08:13.516Z,43.82
2024-05-09T01:09:13.265Z,43.80
2024-05-09T01:10:17.451Z,43.78
2024-05-09T01:11:14.379Z,43.76
2024-05-09T01:12:13.387Z,43.79
2024-05-09T01:13:13.284Z,43.74
2024-05-09T01:14:13.320Z,43.77
2024-05-09T01:15:13.270Z,43.78
2024-05-09T01:16:13.278Z,43.77
2024-05-09T01:17:13.352Z,43.75
2024-05-09T01:18:14.004Z,43.73
2024-05-09T01:19:13.385Z,43.77
2024-05-09T01:21:13.374Z,43.67
2024-05-09T01:22:13.288Z,43.72
2024-05-09T01:23:15.044Z,43.70
2024-05-09T01:24:13.296Z,43.71
2024-05-09T01:25:13.293Z,43.64
2024-05-09T01:26:13.366Z,43.70
2024-05-09T01:27:13.295Z,43.71
2024-05-09T01:28:13.315Z,43.71
2024-05-09T01:29:13.415Z,43.75
2024-05-09T01:31:13.357Z,43.70
2024-05-09T01:32:13.519Z,43.67
2024-05-09T01:33:13.874Z,43.69
2024-05-09T01:34:13.406Z,43.63
2024-05-09T01:35:13.421Z,43.67
2024-05-09T01:36:13.402Z,43.62
2024-05-09T01:37:13.372Z,43.71
2024-05-09T01:38:13.995Z,43.69
2024-05-09T01:39:13.356Z,43.65
2024-05-09T01:40:18.446Z,43.65
2024-05-09T01:41:14.406Z,43.68
2024-05-09T01:42:13.361Z,43.61
2024-05-09T01:43:13.365Z,43.70
2024-05-09T01:44:13.543Z,43.66
2024-05-09T01:45:13.367Z,43.59
2024-05-09T01:46:13.370Z,43.55
2024-05-09T01:47:13.459Z,43.62
2024-05-09T01:48:13.627Z,43.62
2024-05-09T01:49:13.548Z,43.69
2024-05-09T01:50:16.452Z,43.65
2024-05-09T01:51:13.426Z,43.65
2024-05-09T01:52:13.406Z,43.58
2024-05-09T01:53:14.164Z,43.66
2024-05-09T01:54:13.377Z,43.63
2024-05-09T01:55:13.373Z,43.57
2024-05-09T01:56:13.408Z,43.56
2024-05-09T01:57:13.383Z,43.59
2024-05-09T01:58:13.393Z,43.55
2024-05-09T01:59:13.416Z,43.57
2024-05-09T02:01:13.423Z,43.57
2024-05-09T02:02:13.493Z,43.59
2024-05-09T02:03:16.158Z,43.55
2024-05-09T02:04:13.587Z,43.51
2024-05-09T02:05:13.461Z,43.61
2024-05-09T02:06:13.428Z,43.50
2024-05-09T02:07:13.413Z,43.58
2024-05-09T02:08:13.427Z,43.54
2024-05-09T02:09:13.395Z,43.54
2024-05-09T02:10:20.289Z,43.51
2024-05-09T02:11:14.463Z,43.53
2024-05-09T02:12:13.535Z,43.55
2024-05-09T02:13:13.402Z,43.56
2024-05-09T02:14:13.451Z,43.55
2024-05-09T02:15:13.416Z,43.56
2024-05-09T02:16:13.498Z,43.50
2024-05-09T02:17:13.502Z,43.51
2024-05-09T02:18:14.032Z,43.57
2024-05-09T02:19:13.469Z,43.53
2024-05-09T02:20:22.481Z,43.50
2024-05-09T02:21:14.469Z,43.47
2024-05-09T02:22:13.419Z,43.48
2024-05-09T02:23:13.461Z,43.47
2024-05-09T02:24:13.469Z,43.53
2024-05-09T02:25:13.434Z,43.43
2024-05-09T02:26:13.443Z,43.51
2024-05-09T02:27:13.427Z,43.50
2024-05-09T02:28:13.430Z,43.43
2024-05-09T02:29:13.564Z,43.43
2024-05-09T02:30:22.391Z,43.45
2024-05-09T02:31:14.681Z,43.49
2024-05-09T02:32:13.736Z,43.47
2024-05-09T02:33:14.588Z,43.47
2024-05-09T02:34:13.821Z,43.47
2024-05-09T02:35:13.727Z,43.48
2024-05-09T02:36:13.659Z,43.45
2024-05-09T02:37:13.674Z,43.49
2024-05-09T02:38:13.900Z,43.42
2024-05-09T02:39:13.677Z,43.47
2024-05-09T02:40:14.949Z,43.46
2024-05-09T02:41:13.738Z,43.39
2024-05-09T02:42:13.664Z,43.42
2024-05-09T02:43:13.671Z,43.40
2024-05-09T02:44:13.711Z,43.44
2024-05-09T02:45:13.670Z,43.43
2024-05-09T02:46:13.678Z,43.43
2024-05-09T02:47:14.355Z,43.43
2024-05-09T02:48:14.362Z,43.43
2024-05-09T02:49:13.848Z,43.46
2024-05-09T02:50:19.384Z,43.40
2024-05-09T02:51:14.790Z,43.46
2024-05-09T02:52:13.751Z,43.43
2024-05-09T02:53:14.428Z,43.38
2024-05-09T02:54:13.705Z,43.42
2024-05-09T02:55:13.740Z,43.39
2024-05-09T02:56:13.839Z,43.42
2024-05-09T02:57:13.756Z,43.35
2024-05-09T02:58:13.777Z,43.40
2024-05-09T02:59:13.740Z,43.41
2024-05-09T03:00:19.054Z,43.36
2024-05-09T03:01:14.794Z,43.37
2024-05-09T03:02:13.819Z,43.42
2024-05-09T03:03:15.499Z,43.36
2024-05-09T03:04:13.741Z,43.32
2024-05-09T03:05:13.772Z,43.39
2024-05-09T03:06:13.761Z,43.37
2024-05-09T03:07:13.736Z,43.43
2024-05-09T03:08:13.926Z,43.40
2024-05-09T03:09:13.732Z,43.35
2024-05-09T03:10:18.508Z,43.33
2024-05-09T03:11:14.874Z,43.35
2024-05-09T03:12:13.889Z,43.38
2024-05-09T03:13:15.157Z,43.37
2024-05-09T03:14:13.810Z,43.37
2024-05-09T03:15:13.747Z,43.34
2024-05-09T03:16:13.755Z,43.32
2024-05-09T03:17:17.384Z,43.28
2024-05-09T03:18:14.138Z,43.33
2024-05-09T03:19:21.902Z,43.37
2024-05-09T03:20:27.335Z,43.33
2024-05-09T03:21:22.564Z,43.33
2024-05-09T03:22:21.565Z,43.35
2024-05-09T03:23:21.594Z,43.35
2024-05-09T03:24:21.552Z,43.31
2024-05-09T03:25:21.558Z,43.29
2024-05-09T03:26:21.612Z,43.29
2024-05-09T03:27:21.575Z,43.31
2024-05-09T03:28:21.571Z,43.23
2024-05-09T03:29:21.634Z,43.27
2024-05-09T03:30:28.725Z,43.33
2024-05-09T03:31:22.639Z,43.28
2024-05-09T03:32:21.743Z,43.32
2024-05-09T03:33:22.153Z,43.28
2024-05-09T03:34:21.599Z,43.28
2024-05-09T03:35:21.733Z,43.35
2024-05-09T03:36:21.615Z,43.32
2024-05-09T03:37:21.606Z,43.28
2024-05-09T03:38:21.659Z,43.28
2024-05-09T03:39:21.615Z,43.30
2024-05-09T03:40:26.371Z,43.29
2024-05-09T03:41:22.698Z,43.23
2024-05-09T03:42:21.650Z,43.24
2024-05-09T03:43:21.616Z,43.24
2024-05-09T03:44:21.655Z,43.24
2024-05-09T03:45:22.620Z,43.25
2024-05-09T03:46:21.616Z,43.25
2024-05-09T03:47:21.907Z,43.27
2024-05-09T03:48:21.926Z,43.21
2024-05-09T03:49:21.963Z,43.17
2024-05-09T03:50:26.195Z,43.24
2024-05-09T03:51:22.611Z,43.17
2024-05-09T03:52:21.622Z,43.21
2024-05-09T03:53:21.664Z,43.22
2024-05-09T03:54:21.636Z,43.24
2024-05-09T03:55:21.663Z,43.17
2024-05-09T03:56:21.731Z,43.21
2024-05-09T03:57:21.651Z,43.15
2024-05-09T03:58:21.643Z,43.19
2024-05-09T03:59:21.659Z,43.22
2024-05-09T04:00:26.699Z,43.21
2024-05-09T04:01:22.778Z,43.22
2024-05-09T04:02:21.868Z,43.18
2024-05-09T04:03:21.911Z,43.19
2024-05-09T04:04:21.659Z,43.15
2024-05-09T04:05:21.715Z,43.17
2024-05-09T04:06:21.664Z,43.15
2024-05-09T04:07:21.687Z,43.18
2024-05-09T04:08:21.755Z,43.19
2024-05-09T04:09:21.657Z,43.15
2024-05-09T04:11:21.807Z,43.19
2024-05-09T04:12:21.823Z,43.11
2024-05-09T04:13:21.786Z,43.21
2024-05-09T04:14:21.883Z,43.15
2024-05-09T04:15:21.846Z,43.19
2024-05-09T04:16:21.919Z,43.18
2024-05-09T04:17:22.131Z,43.13
2024-05-09T04:18:22.248Z,43.09
2024-05-09T04:19:22.312Z,43.17
2024-05-09T04:21:22.508Z,43.10
2024-05-09T04:22:22.594Z,43.17
2024-05-09T04:23:22.741Z,43.09
2024-05-09T04:24:22.837Z,43.10
2024-05-09T04:25:22.929Z,43.09
2024-05-09T04:26:23.165Z,43.05
2024-05-09T04:27:23.176Z,43.11
2024-05-09T04:28:23.265Z,43.03
2024-05-09T04:29:23.539Z,43.18
2024-05-09T04:30:33.778Z,43.06
2024-05-09T04:31:24.517Z,43.09
2024-05-09T04:32:23.578Z,43.10
2024-05-09T04:33:23.845Z,43.12
2024-05-09T04:34:23.575Z,43.06
2024-05-09T04:35:23.672Z,43.06
2024-05-09T04:36:23.502Z,43.02
2024-05-09T04:37:23.517Z,43.03
2024-05-09T04:38:23.655Z,43.06
2024-05-09T04:39:23.502Z,43.00
2024-05-09T04:40:30.826Z,43.08
2024-05-09T04:41:24.662Z,43.05
2024-05-09T04:42:23.607Z,43.06
2024-05-09T04:43:23.612Z,43.06
2024-05-09T04:44:23.622Z,43.05
2024-05-09T04:45:23.761Z,43.02
2024-05-09T04:46:23.603Z,43.06
2024-05-09T04:47:23.814Z,43.06
2024-05-09T04:48:23.746Z,43.02
2024-05-09T04:49:23.775Z,43.00
2024-05-09T04:51:23.609Z,42.99
2024-05-09T04:52:23.620Z,42.99
2024-05-09T04:53:23.687Z,43.02
2024-05-09T04:54:33.644Z,43.03
2024-05-09T04:55:24.666Z,43.02
2024-05-09T04:56:23.650Z,42.97
2024-05-09T04:57:23.632Z,43.03
2024-05-09T04:58:23.642Z,43.06
2024-05-09T04:59:23.660Z,42.99
2024-05-09T05:00:31.996Z,43.00
2024-05-09T05:01:24.676Z,43.02
2024-05-09T05:02:23.700Z,43.03
2024-05-09T05:03:23.778Z,42.99
2024-05-09T05:04:23.746Z,42.95
2024-05-09T05:05:23.723Z,43.00
2024-05-09T05:06:23.643Z,42.96
2024-05-09T05:07:23.653Z,42.96
2024-05-09T05:08:23.714Z,42.99
2024-05-09T05:09:23.676Z,42.95
2024-05-09T05:10:32.947Z,42.92
2024-05-09T05:11:24.835Z,42.97
2024-05-09T05:12:23.870Z,42.96
2024-05-09T05:13:24.577Z,42.96
2024-05-09T05:14:23.860Z,42.92
2024-05-09T05:15:23.780Z,42.94
2024-05-09T05:16:23.732Z,42.96
2024-05-09T05:17:23.878Z,42.94
2024-05-09T05:18:23.851Z,42.94
2024-05-09T05:19:23.808Z,43.03
2024-05-09T05:20:30.950Z,42.97
2024-05-09T05:21:24.858Z,42.97
2024-05-09T05:22:27.809Z,42.90
2024-05-09T05:23:23.951Z,42.98
2024-05-09T05:24:23.729Z,42.93
2024-05-09T05:25:23.748Z,42.96
2024-05-09T05:26:23.775Z,42.86
2024-05-09T05:27:23.778Z,42.94
2024-05-09T05:28:23.859Z,42.90
2024-05-09T05:29:23.805Z,42.90
2024-05-09T05:30:29.073Z,42.86
2024-05-09T05:31:24.821Z,42.89
2024-05-09T05:32:23.961Z,42.87
2024-05-09T05:33:23.919Z,42.96
2024-05-09T05:34:23.782Z,42.83
2024-05-09T05:35:23.877Z,42.87
2024-05-09T05:36:23.767Z,42.88
2024-05-09T05:37:23.777Z,42.93
2024-05-09T05:38:27.387Z,42.91
2024-05-09T05:39:23.781Z,42.84
2024-05-09T05:40:32.370Z,42.89
2024-05-09T05:41:24.839Z,42.87
2024-05-09T05:42:26.008Z,42.80
2024-05-09T05:43:23.780Z,42.84
2024-05-09T05:44:23.918Z,42.82
2024-05-09T05:45:23.783Z,42.87
2024-05-09T05:46:23.787Z,42.83
2024-05-09T05:47:23.967Z,42.84
2024-05-09T05:48:24.005Z,42.84
2024-05-09T05:49:24.007Z,42.89
2024-05-09T05:50:31.847Z,42.87
2024-05-09T05:51:24.928Z,42.89
2024-05-09T05:52:23.823Z,42.77
2024-05-09T05:53:23.983Z,42.77
2024-05-09T05:54:23.854Z,42.76
2024-05-09T05:55:23.870Z,42.84
2024-05-09T05:56:23.877Z,42.87
2024-05-09T05:57:23.867Z,42.87
2024-05-09T05:58:23.856Z,42.82
2024-05-09T05:59:23.981Z,42.81
2024-05-09T06:01:23.979Z,42.81
2024-05-09T06:02:24.051Z,42.80
2024-05-09T06:03:24.019Z,42.75
2024-05-09T06:04:24.018Z,42.80
2024-05-09T06:05:25.989Z,42.81
2024-05-09T06:06:23.954Z,42.76
2024-05-09T06:07:23.974Z,42.77
2024-05-09T06:08:26.173Z,42.83
2024-05-09T06:09:23.967Z,42.72
2024-05-09T06:10:26.467Z,42.68
2024-05-09T06:11:25.032Z,42.71
2024-05-09T06:12:24.264Z,42.77
2024-05-09T06:13:23.972Z,42.78
2024-05-09T06:14:24.153Z,42.80
2024-05-09T06:15:23.972Z,42.70
2024-05-09T06:16:23.984Z,42.85
2024-05-09T06:17:24.161Z,42.74
2024-05-09T06:18:24.450Z,42.77
2024-05-09T06:19:24.337Z,42.78
2024-05-09T06:20:31.960Z,42.78
2024-05-09T06:21:24.993Z,42.76
2024-05-09T06:22:23.985Z,42.70
2024-05-09T06:23:23.997Z,42.70
2024-05-09T06:24:23.976Z,42.68
2024-05-09T06:25:23.999Z,42.74
2024-05-09T06:26:24.031Z,42.74
2024-05-09T06:27:23.991Z,42.72
2024-05-09T06:28:23.989Z,42.72
2024-05-09T06:29:24.026Z,42.75
2024-05-09T06:30:30.715Z,42.68
2024-05-09T06:31:24.996Z,42.74
2024-05-09T06:32:24.226Z,42.71
2024-05-09T06:33:24.217Z,42.70
2024-05-09T06:34:24.076Z,42.71
2024-05-09T06:35:24.015Z,42.71
2024-05-09T06:36:24.014Z,42.71
2024-05-09T06:37:24.004Z,42.69
2024-05-09T06:38:24.030Z,42.69
2024-05-09T06:39:24.024Z,42.67
2024-05-09T06:40:29.287Z,42.67
2024-05-09T06:41:25.171Z,42.67
2024-05-09T06:42:24.094Z,42.68
2024-05-09T06:43:24.096Z,42.67
2024-05-09T06:44:24.241Z,42.71
2024-05-09T06:45:24.113Z,42.72
2024-05-09T06:46:24.115Z,42.65
2024-05-09T06:47:24.384Z,42.71
2024-05-09T06:48:24.343Z,42.67
2024-05-09T06:49:24.277Z,42.67
2024-05-09T06:50:28.015Z,42.71
2024-05-09T06:51:25.157Z,42.68
2024-05-09T06:52:24.128Z,42.58
2024-05-09T06:53:24.228Z,42.65
2024-05-09T06:54:24.127Z,42.65
2024-05-09T06:55:24.114Z,42.64
2024-05-09T06:56:24.158Z,42.65
2024-05-09T06:57:24.132Z,42.71
2024-05-09T06:58:24.227Z,42.63
2024-05-09T06:59:24.184Z,42.61
2024-05-09T07:00:30.843Z,42.62
2024-05-09T07:01:25.178Z,42.61
2024-05-09T07:02:24.194Z,42.67
2024-05-09T07:03:24.330Z,42.65
2024-05-09T07:04:24.261Z,42.65
2024-05-09T07:05:24.245Z,42.57
2024-05-09T07:06:24.174Z,42.61
2024-05-09T07:07:24.132Z,42.65
2024-05-09T07:08:24.273Z,42.67
2024-05-09T07:09:24.143Z,42.64
2024-05-09T07:10:29.157Z,42.65
2024-05-09T07:11:25.360Z,42.67
2024-05-09T07:12:24.480Z,42.59
2024-05-09T07:13:24.326Z,42.63
2024-05-09T07:14:24.311Z,42.64
2024-05-09T07:15:24.264Z,42.71
2024-05-09T07:16:24.282Z,42.58
2024-05-09T07:17:24.395Z,42.59
2024-05-09T07:18:24.401Z,42.60
2024-05-09T07:19:24.398Z,42.65
2024-05-09T07:20:32.333Z,42.63
2024-05-09T07:21:25.388Z,42.61
2024-05-09T07:22:24.262Z,42.57
2024-05-09T07:23:24.341Z,42.61
2024-05-09T07:24:24.281Z,42.58
2024-05-09T07:25:24.272Z,42.56
2024-05-09T07:26:24.330Z,42.61
2024-05-09T07:27:24.300Z,42.59
2024-05-09T07:28:24.328Z,42.58
2024-05-09T07:29:24.351Z,42.58
2024-05-09T07:30:32.490Z,42.56
2024-05-09T07:31:25.285Z,42.52
2024-05-09T07:32:24.471Z,42.51
2024-05-09T07:33:24.871Z,42.57
2024-05-09T07:34:24.344Z,42.52
2024-05-09T07:35:24.323Z,42.58
2024-05-09T07:36:24.297Z,42.52
2024-05-09T07:37:24.306Z,42.57
2024-05-09T07:38:24.360Z,42.56
2024-05-09T07:39:24.287Z,42.49
2024-05-09T07:40:32.462Z,42.55
2024-05-09T07:41:25.508Z,42.50
2024-05-09T07:42:24.403Z,42.52
2024-05-09T07:43:24.431Z,42.49
2024-05-09T07:44:24.424Z,42.50
2024-05-09T07:45:43.004Z,42.52
2024-05-09T07:47:20.364Z,42.54
2024-05-09T07:48:56.921Z,42.54
2024-05-09T07:50:00.820Z,42.40
2024-05-09T07:53:33.248Z,42.52
2024-05-09T07:53:42.704Z,42.55
2024-05-09T07:54:35.746Z,42.54
2024-05-09T07:55:34.758Z,42.55
2024-05-09T07:56:35.014Z,42.44
2024-05-09T07:57:34.700Z,42.49
2024-05-09T07:58:34.643Z,42.51
2024-05-09T07:59:37.904Z,42.51
2024-05-09T08:00:34.755Z,42.49
2024-05-09T08:01:34.977Z,42.47
2024-05-09T08:02:34.794Z,42.44
2024-05-09T08:03:34.982Z,42.48
2024-05-09T08:04:34.751Z,42.47
2024-05-09T08:05:34.902Z,42.47
2024-05-09T08:06:34.709Z,42.48
2024-05-09T08:07:34.653Z,42.45
2024-05-09T08:08:34.681Z,42.47
2024-05-09T08:09:36.714Z,42.44
2024-05-09T08:10:34.765Z,42.48
2024-05-09T08:11:34.763Z,42.49
2024-05-09T08:12:34.731Z,42.45
2024-05-09T08:13:34.691Z,42.54
2024-05-09T08:14:34.684Z,42.44
2024-05-09T08:15:34.736Z,42.41
2024-05-09T08:16:34.731Z,42.42
2024-05-09T08:17:34.768Z,42.47
2024-05-09T08:18:34.840Z,42.45
2024-05-09T08:19:34.718Z,42.39
2024-05-09T08:20:35.493Z,42.47
2024-05-09T08:21:34.723Z,42.48
2024-05-09T08:22:34.708Z,42.45
2024-05-09T08:23:34.716Z,42.44
2024-05-09T08:24:34.773Z,42.38
2024-05-09T08:25:34.741Z,42.37
2024-05-09T08:26:34.706Z,42.41
2024-05-09T08:27:34.768Z,42.40
2024-05-09T08:28:34.712Z,42.28
2024-05-09T08:29:34.716Z,42.42
2024-05-09T08:30:37.253Z,42.37
2024-05-09T08:31:34.807Z,42.44
2024-05-09T08:32:34.772Z,42.42
2024-05-09T08:33:34.935Z,42.34
2024-05-09T08:34:34.781Z,42.37
2024-05-09T08:35:35.105Z,42.39
2024-05-09T08:36:34.760Z,42.36
2024-05-09T08:37:38.753Z,42.38
2024-05-09T08:38:35.720Z,42.33
2024-05-09T08:39:34.780Z,42.38
2024-05-09T08:40:36.864Z,42.35
2024-05-09T08:41:34.732Z,42.37
2024-05-09T08:42:34.801Z,42.40
2024-05-09T08:43:35.697Z,42.37
2024-05-09T08:44:34.781Z,42.28
2024-05-09T08:45:34.938Z,42.41
2024-05-09T08:46:34.907Z,42.36
2024-05-09T08:47:34.894Z,42.40
2024-05-09T08:48:34.936Z,42.41
2024-05-09T08:49:36.508Z,42.34
2024-05-09T08:50:38.895Z,42.35
2024-05-09T08:51:35.850Z,42.32
2024-05-09T08:52:34.793Z,42.38
2024-05-09T08:53:34.808Z,42.34
2024-05-09T08:54:34.846Z,42.25
2024-05-09T08:55:35.866Z,42.33
2024-05-09T08:56:34.826Z,42.33
2024-05-09T08:57:34.880Z,42.30
2024-05-09T08:58:34.898Z,42.34
2024-05-09T08:59:34.928Z,42.24
2024-05-09T09:00:37.316Z,42.30
2024-05-09T09:01:36.162Z,42.31
2024-05-09T09:02:35.066Z,42.22
2024-05-09T09:03:35.114Z,42.23
2024-05-09T09:04:35.152Z,42.30
2024-05-09T09:05:35.178Z,42.27
2024-05-09T09:06:34.986Z,42.33
2024-05-09T09:07:34.974Z,42.30
2024-05-09T09:08:35.008Z,42.31
2024-05-09T09:09:35.093Z,42.31
2024-05-09T09:10:35.439Z,42.28
2024-05-09T09:11:35.109Z,42.14
2024-05-09T09:12:35.192Z,42.27
2024-05-09T09:13:35.303Z,42.28
2024-05-09T09:14:35.428Z,42.24
2024-05-09T09:15:35.555Z,42.24
2024-05-09T09:16:35.678Z,42.33
2024-05-09T09:17:35.823Z,42.29
2024-05-09T09:18:36.202Z,42.27
2024-05-09T09:19:36.112Z,42.27
2024-05-09T09:20:37.124Z,42.23
2024-05-09T09:21:36.216Z,42.23
2024-05-09T09:22:36.306Z,42.27
2024-05-09T09:23:36.441Z,42.21
2024-05-09T09:24:36.550Z,42.29
2024-05-09T09:25:36.610Z,42.24
2024-05-09T09:26:36.732Z,42.33
2024-05-09T09:27:36.854Z,42.23
2024-05-09T09:28:36.942Z,42.24
2024-05-09T09:29:37.045Z,42.27
2024-05-09T09:30:38.183Z,42.27
2024-05-09T09:31:37.314Z,42.23
2024-05-09T09:32:37.489Z,42.26
2024-05-09T09:33:37.565Z,42.23
2024-05-09T09:34:37.593Z,42.29
2024-05-09T09:35:37.694Z,42.23
2024-05-09T09:36:37.851Z,42.23
2024-05-09T09:37:37.907Z,42.24
2024-05-09T09:38:38.093Z,42.24
2024-05-09T09:39:38.129Z,42.19
2024-05-09T09:40:42.532Z,42.20
2024-05-09T09:41:39.274Z,42.20
2024-05-09T09:42:38.289Z,42.20
2024-05-09T09:43:38.221Z,42.16
2024-05-09T09:44:42.108Z,42.19
2024-05-09T09:45:38.298Z,42.22
2024-05-09T09:46:38.298Z,42.19
2024-05-09T09:47:38.351Z,42.16
2024-05-09T09:48:38.326Z,42.22
2024-05-09T09:49:38.335Z,42.14
2024-05-09T09:50:38.275Z,42.19
2024-05-09T09:51:38.252Z,42.18
2024-05-09T09:52:38.299Z,42.14
2024-05-09T09:53:38.382Z,42.16
2024-05-09T09:54:38.271Z,42.09
2024-05-09T09:55:38.234Z,42.16
2024-05-09T09:56:38.251Z,42.22
2024-05-09T09:57:38.348Z,42.12
2024-05-09T09:58:38.294Z,42.22
2024-05-09T09:59:38.305Z,42.19
2024-05-09T10:00:38.449Z,42.13
2024-05-09T10:01:38.378Z,42.13
2024-05-09T10:02:38.369Z,42.15
2024-05-09T10:03:38.691Z,42.10
2024-05-09T10:04:38.390Z,42.18
2024-05-09T10:05:40.501Z,42.16
2024-05-09T10:06:38.338Z,42.14
2024-05-09T10:07:38.311Z,42.09
2024-05-09T10:08:38.316Z,42.16
2024-05-09T10:09:38.365Z,42.09
2024-05-09T10:10:38.449Z,42.14
2024-05-09T10:11:42.018Z,42.06
2024-05-09T10:12:39.430Z,42.07
2024-05-09T10:13:38.342Z,42.07
2024-05-09T10:14:38.362Z,42.08
2024-05-09T10:15:38.446Z,42.12
2024-05-09T10:16:38.358Z,42.03
2024-05-09T10:17:38.590Z,42.08
2024-05-09T10:18:39.463Z,42.06
2024-05-09T10:19:38.567Z,42.08
2024-05-09T10:20:38.334Z,42.07
2024-05-09T10:21:38.406Z,42.14
2024-05-09T10:22:38.352Z,42.09
2024-05-09T10:23:38.366Z,42.09
2024-05-09T10:24:38.493Z,42.05
2024-05-09T10:25:38.354Z,42.05
2024-05-09T10:26:38.404Z,42.05
2024-05-09T10:27:38.556Z,42.03
2024-05-09T10:28:38.610Z,42.01
2024-05-09T10:29:38.737Z,41.99
2024-05-09T10:30:39.898Z,41.95
2024-05-09T10:31:38.904Z,42.02
2024-05-09T10:32:38.959Z,42.08
2024-05-09T10:33:39.305Z,41.98
2024-05-09T10:34:39.081Z,41.98
2024-05-09T10:35:39.151Z,42.01
2024-05-09T10:36:39.285Z,42.01
2024-05-09T10:37:39.342Z,41.98
2024-05-09T10:38:39.442Z,42.01
2024-05-09T10:39:39.650Z,41.98
2024-05-09T10:40:39.758Z,41.98
2024-05-09T10:41:39.788Z,41.95
2024-05-09T10:42:39.883Z,41.99
2024-05-09T10:43:39.963Z,41.98
2024-05-09T10:44:40.069Z,41.95
2024-05-09T10:45:40.229Z,41.95
2024-05-09T10:46:40.281Z,41.96
2024-05-09T10:47:40.494Z,41.98
2024-05-09T10:48:40.622Z,41.92
2024-05-09T10:49:40.658Z,41.92
2024-05-09T10:50:40.698Z,41.97
2024-05-09T10:51:40.832Z,41.92
2024-05-09T10:52:40.914Z,41.96
2024-05-09T10:53:41.022Z,41.94
2024-05-09T10:54:41.149Z,41.98
2024-05-09T10:55:41.246Z,41.93
2024-05-09T10:56:41.331Z,41.91
2024-05-09T10:57:41.470Z,41.88
2024-05-09T10:58:42.812Z,41.91
2024-05-09T10:59:41.637Z,41.92
2024-05-09T11:00:41.865Z,41.89
2024-05-09T11:01:41.939Z,41.91
2024-05-09T11:02:42.022Z,41.89
2024-05-09T11:03:42.767Z,41.85
2024-05-09T11:04:42.365Z,41.88
2024-05-09T11:05:42.326Z,41.91
2024-05-09T11:06:42.423Z,41.94
2024-05-09T11:07:42.477Z,41.85
2024-05-09T11:08:42.565Z,41.89
2024-05-09T11:09:42.733Z,41.85
2024-05-09T11:10:42.861Z,41.85
2024-05-09T11:11:42.964Z,41.88
2024-05-09T11:12:43.049Z,41.89
2024-05-09T11:13:43.078Z,41.87
2024-05-09T11:14:43.219Z,41.93
2024-05-09T11:15:43.306Z,41.88
2024-05-09T11:16:43.407Z,41.87
2024-05-09T11:17:43.640Z,41.87
2024-05-09T11:18:43.945Z,41.84
2024-05-09T11:19:43.776Z,41.81
2024-05-09T11:20:43.884Z,41.88
2024-05-09T11:21:43.989Z,41.88
2024-05-09T11:22:44.040Z,41.82
2024-05-09T11:23:44.149Z,41.84
2024-05-09T11:24:44.366Z,41.85
2024-05-09T11:25:44.353Z,41.82
2024-05-09T11:26:44.456Z,41.88
2024-05-09T11:27:44.632Z,41.84
2024-05-09T11:28:44.795Z,41.80
2024-05-09T11:29:44.800Z,41.78
2024-05-09T11:30:44.903Z,41.87
2024-05-09T11:31:45.138Z,41.87
2024-05-09T11:32:45.202Z,41.83
2024-05-09T11:33:45.265Z,41.81
2024-05-09T11:34:45.289Z,41.83
2024-05-09T11:35:45.384Z,41.78
2024-05-09T11:36:45.535Z,41.77
2024-05-09T11:37:45.583Z,41.87
2024-05-09T11:38:45.671Z,41.89
2024-05-09T11:39:45.821Z,41.81
2024-05-09T11:40:46.000Z,41.86
2024-05-09T11:41:46.073Z,41.86
2024-05-09T11:42:46.554Z,41.87
2024-05-09T11:43:46.192Z,41.80
2024-05-09T11:44:46.274Z,41.85
2024-05-09T11:45:46.413Z,41.89
2024-05-09T11:46:46.484Z,41.86
2024-05-09T11:47:46.632Z,41.81
2024-05-09T11:48:46.855Z,41.83
2024-05-09T11:49:46.779Z,41.81
2024-05-09T11:50:46.891Z,41.81
2024-05-09T11:51:46.998Z,41.73
2024-05-09T11:52:47.078Z,41.82
2024-05-09T11:53:47.172Z,41.84
2024-05-09T11:54:47.298Z,41.78
2024-05-09T11:55:47.376Z,41.84
2024-05-09T11:56:47.451Z,41.83
2024-05-09T11:57:47.599Z,41.84
2024-05-09T11:58:47.686Z,41.83
2024-05-09T11:59:47.754Z,41.83
2024-05-09T12:00:47.968Z,41.81
2024-05-09T12:01:48.024Z,41.79
2024-05-09T12:02:48.051Z,41.80
2024-05-09T12:03:48.255Z,41.80
2024-05-09T12:04:48.394Z,41.80
2024-05-09T12:05:48.424Z,41.79
2024-05-09T12:06:48.510Z,41.77
2024-05-09T12:07:48.534Z,41.81
2024-05-09T12:08:48.598Z,41.80
2024-05-09T12:09:48.726Z,41.83
2024-05-09T12:10:49.133Z,41.82
2024-05-09T12:11:48.952Z,41.77
2024-05-09T12:12:49.050Z,41.75
2024-05-09T12:13:49.080Z,41.76
2024-05-09T12:14:49.181Z,41.74
2024-05-09T12:15:49.319Z,41.76
2024-05-09T12:16:49.423Z,41.79
2024-05-09T12:17:50.953Z,41.72
2024-05-09T12:18:49.605Z,41.73
2024-05-09T12:19:49.517Z,41.76
2024-05-09T12:20:49.555Z,41.69
2024-05-09T12:21:49.613Z,41.73
2024-05-09T12:22:49.679Z,41.76
2024-05-09T12:23:56.956Z,41.83
2024-05-09T12:24:56.967Z,41.77
2024-05-09T12:25:56.959Z,41.73
2024-05-09T12:26:56.987Z,41.74
2024-05-09T12:27:56.974Z,41.73
2024-05-09T12:28:56.967Z,41.73
2024-05-09T12:29:56.969Z,41.75
2024-05-09T12:30:57.001Z,41.72
2024-05-09T12:31:56.996Z,41.69
2024-05-09T12:32:57.203Z,41.69
2024-05-09T12:33:57.039Z,41.72
2024-05-09T12:34:57.000Z,41.68
2024-05-09T12:35:56.973Z,41.69
2024-05-09T12:36:56.994Z,41.71
2024-05-09T12:37:56.981Z,41.71
2024-05-09T12:38:57.019Z,41.69
2024-05-09T12:39:56.997Z,41.64
2024-05-09T12:40:57.040Z,41.61
2024-05-09T12:41:56.984Z,41.66
2024-05-09T12:42:57.010Z,41.66
2024-05-09T12:43:56.963Z,41.62
2024-05-09T12:44:56.973Z,41.61
2024-05-09T12:45:57.033Z,41.65
2024-05-09T12:46:56.985Z,41.59
2024-05-09T12:47:57.083Z,41.62
2024-05-09T12:48:57.152Z,41.59
2024-05-09T12:49:57.035Z,41.59
2024-05-09T12:50:57.022Z,41.59
2024-05-09T12:51:57.116Z,41.62
2024-05-09T12:52:57.028Z,41.60
2024-05-09T12:53:57.132Z,41.56
2024-05-09T12:54:57.215Z,41.61
2024-05-09T12:56:01.817Z,41.60
2024-05-09T12:56:58.316Z,41.61
2024-05-09T12:57:57.425Z,41.56
2024-05-09T12:58:57.307Z,41.59
2024-05-09T12:59:57.315Z,41.58
2024-05-09T13:00:57.415Z,41.58
2024-05-09T13:01:59.554Z,41.57
2024-05-09T13:02:57.382Z,41.55